Illinois Logo

Beach Park, IL Single Family Real Estate Listings

54 Total Real Estate Listings * Click on table heading to sort
Date Posted Property Type Style Address Price Living Area Lot Size Price/Sq Ft.
2019-02-20 Single Family Ranch 13229 Sheffield Lane Beach Park, IL 60083 $197,000 1,870 sq. ft. $105
2019-02-16 Single Family 10083 Ford Avenue Beach Park, IL 60099 $140,000 1,147 sq. ft. 7,000 sq. ft. $122
2019-02-14 Single Family 38862 Holdridge Avenue Beach Park, IL 60099 $250,000 2,270 sq. ft. 16,148 sq. ft. $110
2019-02-11 Single Family 39170 Holdridge Avenue Beach Park, IL 60099 $139,000 780 sq. ft. 15,246 sq. ft. $178
2019-02-10 Single Family 39631 Warren Lane Beach Park, IL 60083 $142,900 1,330 sq. ft. $107
2019-02-08 Single Family 10360 Yale Avenue Beach Park, IL 60099 $175,000 1,610 sq. ft. 7,619 sq. ft. $109
2019-02-08 Single Family 39328 Melbourne Court Beach Park, IL 60083 $139,900 1,318 sq. ft. $106
2019-02-07 Single Family Tri-Level 10429 Waldo Avenue Beach Park, IL 60087 $199,900 1,400 sq. ft. 10,019 sq. ft. $143
2019-02-07 Single Family Ranch 38467 Loyola Avenue Beach Park, IL 60087 $169,900 2,168 sq. ft. $78
2019-02-07 Single Family 40710 Green Bay Road Beach Park, IL 60099 $250,000 2,424 sq. ft. 43,560 sq. ft. $103
2019-02-03 Single Family Colonial 10645 Marc Court Beach Park, IL 60087 $209,900 1,640 sq. ft. 20,042 sq. ft. $128
2019-02-02 Single Family 38337 Monarch Court Beach Park, IL 60087 $210,000 2,398 sq. ft. 9,148 sq. ft. $88
2019-01-24 Single Family Ranch 10459 Beach Road Beach Park, IL 60087 $172,000 1,792 sq. ft. 32,670 sq. ft. $96
2019-01-19 Single Family 39630 Warren Lane Beach Park, IL 60083 $139,900 1,330 sq. ft. $105
2019-01-17 Single Family 13299 Bucksburn Lane Beach Park, IL 60083 $229,900 3,082 sq. ft. 10,350 sq. ft. $75
2019-01-09 Single Family Colonial 13488 Piccadilly Court Beach Park, IL 60083 $239,900 3,018 sq. ft. 15,141 sq. ft. $79
2019-01-07 Single Family 11939 33rd Street Beach Park, IL 60099 $199,999 1,204 sq. ft. 40,511 sq. ft. $166
2019-01-01 Single Family 39172 Green Bay Road Beach Park, IL 60087 $500,000 1,040 sq. ft. 308,840 sq. ft. $481
2018-12-31 Single Family Ranch 10455 York House Road Beach Park, IL 60087 $205,500 1,452 sq. ft. 10,019 sq. ft. $142
2018-12-29 Single Family Tri-Level 12854 Suddard Street Beach Park, IL 60087 $180,000 1,900 sq. ft. 20,434 sq. ft. $95
2018-12-20 Single Family 39455 Lewis Avenue Beach Park, IL 60099 $179,900 1,890 sq. ft. 29,621 sq. ft. $95
2018-12-19 Single Family 39673 Warren Lane Beach Park, IL 60083 $119,000 1,318 sq. ft. $90
2018-12-19 Single Family Ranch 12298 Paddock Avenue Beach Park, IL 60087 $39,900 1,008 sq. ft. 20,107 sq. ft. $40
2018-12-10 Single Family Colonial 10415 Ames Avenue Beach Park, IL 60087 $137,500 1,188 sq. ft. 16,174 sq. ft. $116
2018-12-07 Single Family Ranch 12530 Bonnie Brook Lane Beach Park, IL 60087 $214,900 2,599 sq. ft. 23,958 sq. ft. $83
2018-11-27 Single Family 12262 29th Street Beach Park, IL 60099 $250,000 1,538 sq. ft. 211,702 sq. ft. $163
2018-11-26 Single Family 12910 Wakefield Drive Beach Park, IL 60083 $157,500 1,558 sq. ft. 3,920 sq. ft. $101
2018-11-24 Single Family 39288 Mcaree Road Beach Park, IL 60099 $129,900 1,248 sq. ft. 17,245 sq. ft. $104
2018-11-21 Single Family 37783 Dewoody Road Beach Park, IL 60087 $161,000 1,848 sq. ft. 6,752 sq. ft. $87
2018-11-16 Single Family Tri-Level 38790 Gilbert Avenue Beach Park, IL 60099 $208,000 1,400 sq. ft. 24,137 sq. ft. $149
2018-11-12 Single Family Ranch 38460 North Avenue Beach Park, IL 60087 $179,900 1,500 sq. ft. 57,935 sq. ft. $120
2018-11-06 Single Family Tri-Level 12860 Clarendon Road Beach Park, IL 60099 $249,900 1,344 sq. ft. 21,780 sq. ft. $186
2018-11-06 Single Family Ranch 10752 Wadsworth Road Beach Park, IL 60099 $239,900 2,152 sq. ft. 79,715 sq. ft. $111
2018-11-01 Single Family Tri-Level 38010 Loyola Avenue Beach Park, IL 60087 $177,000 1,576 sq. ft. 7,501 sq. ft. $112
2018-10-31 Single Family Ranch 10153 California Avenue Beach Park, IL 60099 $239,900 2,988 sq. ft. 18,731 sq. ft. $80
2018-10-29 Single Family 10101 Pickford Avenue Beach Park, IL 60099 $112,500 1,536 sq. ft. 8,102 sq. ft. $73
2018-10-26 Single Family Ranch 38253 Loyola Avenue Beach Park, IL 60087 $109,000 895 sq. ft. 8,381 sq. ft. $122
2018-10-25 Single Family 10341 California Avenue Beach Park, IL 60099 $199,000 1,645 sq. ft. 32,234 sq. ft. $121
2018-10-25 Single Family Traditional 39315 Queensbury Lane Beach Park, IL 60083 $250,000 2,470 sq. ft. 7,841 sq. ft. $101
2018-10-19 Single Family Quad Level 1138 Beach Road Beach Park, IL 60087 $165,000 1,964 sq. ft. 6,970 sq. ft. $84
2018-10-10 Single Family Ranch 9855 Oak Forest Drive Beach Park, IL 60099 $180,000 1,252 sq. ft. 15,682 sq. ft. $144
2018-09-25 Single Family 12109 Waldo Avenue Beach Park, IL 60087 $149,900 1,900 sq. ft. 32,234 sq. ft. $79
2018-09-25 Single Family 38468 North Shore Avenue Beach Park, IL 60087 $179,900 2,040 sq. ft. 7,841 sq. ft. $88
2018-09-13 Single Family Ranch 12594 Yorkhouse Road Beach Park, IL 60087 $119,900 1,440 sq. ft. 13,939 sq. ft. $83
2018-09-06 Single Family 11793 Illinois Avenue Beach Park, IL 60099 $159,900 1,261 sq. ft. 51,836 sq. ft. $127
2018-09-05 Single Family Ranch 12454 Wadsworth Road Beach Park, IL 60087 $164,900 1,394 sq. ft. 78,016 sq. ft. $118
2018-09-01 Single Family Colonial 13112 Yorkshire Lane Beach Park, IL 60087 $280,000 2,879 sq. ft. 7,405 sq. ft. $97
2018-08-21 Single Family Ranch 38719 Green Bay Road Beach Park, IL 60087 $100,000 1,075 sq. ft. 9,727 sq. ft. $93
2018-08-07 Single Family 12661 Blossom Avenue Beach Park, IL 60087 $87,619 1,087 sq. ft. 13,138 sq. ft. $81
2018-08-06 Single Family Tri-Level 12164 Graves Avenue Beach Park, IL 60087 $158,900 1,862 sq. ft. 12,140 sq. ft. $85
2018-07-25 Single Family Tri-Level 12623 Major Avenue Beach Park, IL 60099 $356,888 1,532 sq. ft. 219,146 sq. ft. $233
2018-07-11 Single Family Bi-Level 10408 Ford Avenue Beach Park, IL 60099 $223,900 2,688 sq. ft. 13,068 sq. ft. $83
2018-03-07 Single Family Contemporary 12170 Bonnie Brook Lane Beach Park, IL 60087 $178,500 1,400 sq. ft. 32,147 sq. ft. $128
2017-09-20 Single Family Traditional 37695 North Avenue Beach Park, IL 60087 $200,000 1,671 sq. ft. 6,878 sq. ft. $120